sensor_id;sensor_type;location;lat;lon;timestamp;P1;durP1;ratioP1;P2;durP2;ratioP2
38787;SDS011;24536;45.488;12.238;2024-03-23T00:54:23;22.67;;;18.80;;
38787;SDS011;24536;45.488;12.238;2024-03-23T00:56:48;24.00;;;19.02;;
38787;SDS011;24536;45.488;12.238;2024-03-23T00:59:14;21.23;;;18.48;;
38787;SDS011;24536;45.488;12.238;2024-03-23T01:01:40;23.25;;;19.65;;
38787;SDS011;24536;45.488;12.238;2024-03-23T01:04:05;21.42;;;17.83;;
38787;SDS011;24536;45.488;12.238;2024-03-23T01:06:31;22.20;;;18.85;;
38787;SDS011;24536;45.488;12.238;2024-03-23T01:08:57;21.92;;;19.00;;
38787;SDS011;24536;45.488;12.238;2024-03-23T01:11:22;24.80;;;20.45;;
38787;SDS011;24536;45.488;12.238;2024-03-23T01:13:48;24.23;;;19.63;;
38787;SDS011;24536;45.488;12.238;2024-03-23T01:16:13;23.85;;;19.73;;
38787;SDS011;24536;45.488;12.238;2024-03-23T01:18:39;25.88;;;20.63;;
38787;SDS011;24536;45.488;12.238;2024-03-23T01:21:05;25.27;;;20.67;;
38787;SDS011;24536;45.488;12.238;2024-03-23T01:23:30;27.00;;;21.08;;
38787;SDS011;24536;45.488;12.238;2024-03-23T01:25:56;26.60;;;21.48;;
38787;SDS011;24536;45.488;12.238;2024-03-23T01:28:22;24.55;;;21.08;;
38787;SDS011;24536;45.488;12.238;2024-03-23T01:30:48;25.85;;;21.63;;
38787;SDS011;24536;45.488;12.238;2024-03-23T01:33:15;25.77;;;21.55;;
38787;SDS011;24536;45.488;12.238;2024-03-23T01:35:40;26.77;;;20.83;;
38787;SDS011;24536;45.488;12.238;2024-03-23T01:38:06;29.85;;;22.00;;
38787;SDS011;24536;45.488;12.238;2024-03-23T01:40:31;25.60;;;20.65;;
38787;SDS011;24536;45.488;12.238;2024-03-23T01:42:58;25.02;;;20.63;;
38787;SDS011;24536;45.488;12.238;2024-03-23T01:45:26;25.33;;;20.30;;
38787;SDS011;24536;45.488;12.238;2024-03-23T01:47:52;24.00;;;20.70;;
38787;SDS011;24536;45.488;12.238;2024-03-23T01:50:21;24.65;;;20.58;;
38787;SDS011;24536;45.488;12.238;2024-03-23T01:52:48;26.02;;;20.77;;
38787;SDS011;24536;45.488;12.238;2024-03-23T01:55:13;27.40;;;21.48;;
38787;SDS011;24536;45.488;12.238;2024-03-23T01:57:39;26.67;;;21.20;;
38787;SDS011;24536;45.488;12.238;2024-03-23T02:00:05;27.27;;;20.95;;
38787;SDS011;24536;45.488;12.238;2024-03-23T02:02:31;26.58;;;21.52;;
38787;SDS011;24536;45.488;12.238;2024-03-23T02:04:57;26.13;;;21.40;;
38787;SDS011;24536;45.488;12.238;2024-03-23T02:07:22;24.77;;;20.48;;
38787;SDS011;24536;45.488;12.238;2024-03-23T02:09:49;25.65;;;21.30;;
38787;SDS011;24536;45.488;12.238;2024-03-23T02:12:18;24.98;;;21.58;;
38787;SDS011;24536;45.488;12.238;2024-03-23T02:14:44;25.42;;;21.40;;
38787;SDS011;24536;45.488;12.238;2024-03-23T02:17:10;26.15;;;21.52;;
38787;SDS011;24536;45.488;12.238;2024-03-23T02:19:54;25.70;;;21.75;;
38787;SDS011;24536;45.488;12.238;2024-03-23T02:22:20;23.48;;;20.05;;
38787;SDS011;24536;45.488;12.238;2024-03-23T02:24:46;24.88;;;20.33;;
38787;SDS011;24536;45.488;12.238;2024-03-23T02:27:12;28.83;;;22.85;;
38787;SDS011;24536;45.488;12.238;2024-03-23T02:29:38;29.45;;;22.25;;
38787;SDS011;24536;45.488;12.238;2024-03-23T02:32:04;27.42;;;22.13;;
38787;SDS011;24536;45.488;12.238;2024-03-23T02:34:29;27.75;;;22.60;;
38787;SDS011;24536;45.488;12.238;2024-03-23T02:36:56;27.75;;;21.88;;
38787;SDS011;24536;45.488;12.238;2024-03-23T02:39:21;25.92;;;21.48;;
38787;SDS011;24536;45.488;12.238;2024-03-23T02:41:47;28.60;;;22.27;;
38787;SDS011;24536;45.488;12.238;2024-03-23T02:44:13;27.73;;;20.63;;
38787;SDS011;24536;45.488;12.238;2024-03-23T02:46:39;26.13;;;20.85;;
38787;SDS011;24536;45.488;12.238;2024-03-23T02:49:07;26.92;;;21.15;;
38787;SDS011;24536;45.488;12.238;2024-03-23T02:51:32;24.77;;;17.95;;
38787;SDS011;24536;45.488;12.238;2024-03-23T02:53:58;26.05;;;22.05;;
38787;SDS011;24536;45.488;12.238;2024-03-23T02:56:24;27.60;;;22.65;;
38787;SDS011;24536;45.488;12.238;2024-03-23T02:58:50;28.25;;;21.60;;
38787;SDS011;24536;45.488;12.238;2024-03-23T03:01:15;28.08;;;22.98;;
38787;SDS011;24536;45.488;12.238;2024-03-23T03:03:41;28.95;;;22.88;;
38787;SDS011;24536;45.488;12.238;2024-03-23T03:06:07;30.80;;;23.45;;
38787;SDS011;24536;45.488;12.238;2024-03-23T03:08:33;30.42;;;23.75;;
38787;SDS011;24536;45.488;12.238;2024-03-23T03:10:59;31.80;;;24.70;;
38787;SDS011;24536;45.488;12.238;2024-03-23T03:13:24;31.77;;;23.48;;
38787;SDS011;24536;45.488;12.238;2024-03-23T03:15:50;23.42;;;19.55;;
38787;SDS011;24536;45.488;12.238;2024-03-23T03:18:15;29.27;;;23.27;;
38787;SDS011;24536;45.488;12.238;2024-03-23T03:20:41;27.77;;;23.23;;
38787;SDS011;24536;45.488;12.238;2024-03-23T03:23:07;28.90;;;23.63;;
38787;SDS011;24536;45.488;12.238;2024-03-23T03:25:33;28.77;;;23.58;;
38787;SDS011;24536;45.488;12.238;2024-03-23T03:27:59;29.02;;;23.70;;
38787;SDS011;24536;45.488;12.238;2024-03-23T03:30:25;29.42;;;23.90;;
38787;SDS011;24536;45.488;12.238;2024-03-23T03:32:52;31.05;;;24.20;;
38787;SDS011;24536;45.488;12.238;2024-03-23T03:35:19;31.27;;;23.77;;
38787;SDS011;24536;45.488;12.238;2024-03-23T03:37:45;28.48;;;24.48;;
38787;SDS011;24536;45.488;12.238;2024-03-23T03:40:16;31.20;;;25.88;;
38787;SDS011;24536;45.488;12.238;2024-03-23T03:42:42;31.73;;;25.20;;
38787;SDS011;24536;45.488;12.238;2024-03-23T03:45:08;30.92;;;24.90;;
38787;SDS011;24536;45.488;12.238;2024-03-23T03:47:33;32.85;;;26.55;;
38787;SDS011;24536;45.488;12.238;2024-03-23T03:49:59;28.48;;;24.77;;
38787;SDS011;24536;45.488;12.238;2024-03-23T03:52:28;28.95;;;23.92;;
38787;SDS011;24536;45.488;12.238;2024-03-23T03:54:58;32.90;;;25.85;;
38787;SDS011;24536;45.488;12.238;2024-03-23T03:57:28;31.40;;;25.95;;
38787;SDS011;24536;45.488;12.238;2024-03-23T03:59:53;29.63;;;24.77;;
38787;SDS011;24536;45.488;12.238;2024-03-23T04:02:19;31.08;;;26.20;;
38787;SDS011;24536;45.488;12.238;2024-03-23T04:04:45;32.55;;;26.63;;
38787;SDS011;24536;45.488;12.238;2024-03-23T04:07:10;30.38;;;24.50;;
38787;SDS011;24536;45.488;12.238;2024-03-23T04:09:38;31.50;;;26.50;;
38787;SDS011;24536;45.488;12.238;2024-03-23T04:12:04;28.30;;;23.73;;
38787;SDS011;24536;45.488;12.238;2024-03-23T04:14:30;28.67;;;24.08;;
38787;SDS011;24536;45.488;12.238;2024-03-23T04:16:55;30.85;;;24.67;;
38787;SDS011;24536;45.488;12.238;2024-03-23T04:19:21;28.67;;;24.48;;
38787;SDS011;24536;45.488;12.238;2024-03-23T04:21:46;25.30;;;22.40;;
38787;SDS011;24536;45.488;12.238;2024-03-23T04:24:12;29.20;;;23.98;;
38787;SDS011;24536;45.488;12.238;2024-03-23T04:26:41;26.52;;;23.50;;
38787;SDS011;24536;45.488;12.238;2024-03-23T04:29:07;27.08;;;23.33;;
38787;SDS011;24536;45.488;12.238;2024-03-23T04:31:32;27.50;;;22.83;;
38787;SDS011;24536;45.488;12.238;2024-03-23T04:33:59;26.02;;;21.58;;
38787;SDS011;24536;45.488;12.238;2024-03-23T04:36:25;24.65;;;21.77;;
38787;SDS011;24536;45.488;12.238;2024-03-23T04:38:51;23.77;;;20.52;;
38787;SDS011;24536;45.488;12.238;2024-03-23T04:41:17;26.25;;;21.17;;
38787;SDS011;24536;45.488;12.238;2024-03-23T04:43:44;21.50;;;19.08;;
38787;SDS011;24536;45.488;12.238;2024-03-23T04:46:10;22.42;;;19.00;;
38787;SDS011;24536;45.488;12.238;2024-03-23T04:48:35;21.67;;;18.35;;
38787;SDS011;24536;45.488;12.238;2024-03-23T04:51:01;21.73;;;18.95;;
38787;SDS011;24536;45.488;12.238;2024-03-23T04:53:27;24.20;;;18.58;;
38787;SDS011;24536;45.488;12.238;2024-03-23T04:55:56;22.52;;;18.52;;
38787;SDS011;24536;45.488;12.238;2024-03-23T04:58:22;21.98;;;19.63;;
38787;SDS011;24536;45.488;12.238;2024-03-23T05:00:52;20.85;;;17.50;;
38787;SDS011;24536;45.488;12.238;2024-03-23T05:03:22;21.63;;;17.65;;
38787;SDS011;24536;45.488;12.238;2024-03-23T05:05:48;23.10;;;19.23;;
38787;SDS011;24536;45.488;12.238;2024-03-23T05:08:14;28.92;;;20.67;;
38787;SDS011;24536;45.488;12.238;2024-03-23T05:10:41;26.42;;;21.55;;
38787;SDS011;24536;45.488;12.238;2024-03-23T05:13:09;26.98;;;21.95;;
38787;SDS011;24536;45.488;12.238;2024-03-23T05:15:35;25.55;;;20.90;;
38787;SDS011;24536;45.488;12.238;2024-03-23T05:18:01;24.35;;;21.27;;
38787;SDS011;24536;45.488;12.238;2024-03-23T05:20:27;27.38;;;21.33;;
38787;SDS011;24536;45.488;12.238;2024-03-23T05:22:54;23.55;;;20.77;;
38787;SDS011;24536;45.488;12.238;2024-03-23T05:25:23;26.38;;;21.98;;
38787;SDS011;24536;45.488;12.238;2024-03-23T05:27:49;25.80;;;21.50;;
38787;SDS011;24536;45.488;12.238;2024-03-23T05:30:15;24.40;;;20.85;;
38787;SDS011;24536;45.488;12.238;2024-03-23T05:32:40;23.80;;;21.15;;
38787;SDS011;24536;45.488;12.238;2024-03-23T05:35:07;24.70;;;21.50;;
38787;SDS011;24536;45.488;12.238;2024-03-23T05:37:34;27.05;;;20.92;;
38787;SDS011;24536;45.488;12.238;2024-03-23T05:40:00;25.05;;;21.33;;
38787;SDS011;24536;45.488;12.238;2024-03-23T05:42:26;24.98;;;22.30;;
38787;SDS011;24536;45.488;12.238;2024-03-23T05:44:52;21.45;;;19.15;;
38787;SDS011;24536;45.488;12.238;2024-03-23T05:47:18;24.25;;;21.58;;
38787;SDS011;24536;45.488;12.238;2024-03-23T05:49:46;22.90;;;20.50;;
38787;SDS011;24536;45.488;12.238;2024-03-23T05:52:12;23.77;;;21.30;;
38787;SDS011;24536;45.488;12.238;2024-03-23T05:54:38;25.23;;;21.83;;
38787;SDS011;24536;45.488;12.238;2024-03-23T05:57:04;22.77;;;20.35;;
38787;SDS011;24536;45.488;12.238;2024-03-23T05:59:41;22.63;;;20.23;;
38787;SDS011;24536;45.488;12.238;2024-03-23T06:02:06;25.13;;;21.92;;
38787;SDS011;24536;45.488;12.238;2024-03-23T06:04:35;25.67;;;22.00;;
38787;SDS011;24536;45.488;12.238;2024-03-23T06:07:01;25.52;;;22.42;;
38787;SDS011;24536;45.488;12.238;2024-03-23T06:09:27;27.35;;;22.92;;
38787;SDS011;24536;45.488;12.238;2024-03-23T06:14:45;26.73;;;22.38;;
38787;SDS011;24536;45.488;12.238;2024-03-23T06:17:13;30.27;;;23.65;;
38787;SDS011;24536;45.488;12.238;2024-03-23T06:19:39;24.63;;;21.48;;
38787;SDS011;24536;45.488;12.238;2024-03-23T06:22:04;28.20;;;21.92;;
38787;SDS011;24536;45.488;12.238;2024-03-23T06:24:31;24.60;;;21.73;;
38787;SDS011;24536;45.488;12.238;2024-03-23T06:26:57;25.00;;;21.70;;
38787;SDS011;24536;45.488;12.238;2024-03-23T06:29:23;26.35;;;22.48;;
38787;SDS011;24536;45.488;12.238;2024-03-23T06:32:22;25.63;;;21.75;;
38787;SDS011;24536;45.488;12.238;2024-03-23T06:34:44;22.88;;;20.13;;
38787;SDS011;24536;45.488;12.238;2024-03-23T06:37:16;24.02;;;20.00;;
38787;SDS011;24536;45.488;12.238;2024-03-23T06:39:42;22.70;;;19.77;;
38787;SDS011;24536;45.488;12.238;2024-03-23T06:42:11;21.80;;;19.50;;
38787;SDS011;24536;45.488;12.238;2024-03-23T06:44:36;22.90;;;20.42;;
38787;SDS011;24536;45.488;12.238;2024-03-23T06:47:05;23.67;;;19.90;;
38787;SDS011;24536;45.488;12.238;2024-03-23T06:49:31;23.65;;;19.40;;
38787;SDS011;24536;45.488;12.238;2024-03-23T06:51:56;21.52;;;19.23;;
38787;SDS011;24536;45.488;12.238;2024-03-23T06:54:22;20.13;;;17.85;;
38787;SDS011;24536;45.488;12.238;2024-03-23T06:56:49;20.95;;;18.65;;
38787;SDS011;24536;45.488;12.238;2024-03-23T06:59:15;24.83;;;19.42;;
38787;SDS011;24536;45.488;12.238;2024-03-23T07:01:41;20.98;;;18.65;;
38787;SDS011;24536;45.488;12.238;2024-03-23T07:04:07;25.88;;;20.33;;
38787;SDS011;24536;45.488;12.238;2024-03-23T07:06:33;20.33;;;17.88;;
38787;SDS011;24536;45.488;12.238;2024-03-23T07:08:59;21.85;;;19.55;;
38787;SDS011;24536;45.488;12.238;2024-03-23T07:11:24;21.98;;;19.67;;
38787;SDS011;24536;45.488;12.238;2024-03-23T07:13:51;21.35;;;19.05;;
38787;SDS011;24536;45.488;12.238;2024-03-23T07:16:19;21.02;;;18.83;;
38787;SDS011;24536;45.488;12.238;2024-03-23T07:18:45;19.83;;;17.58;;
38787;SDS011;24536;45.488;12.238;2024-03-23T07:21:11;20.88;;;18.65;;
38787;SDS011;24536;45.488;12.238;2024-03-23T07:23:36;23.40;;;21.05;;
38787;SDS011;24536;45.488;12.238;2024-03-23T07:28:32;19.92;;;17.83;;
38787;SDS011;24536;45.488;12.238;2024-03-23T07:33:36;22.00;;;18.88;;
38787;SDS011;24536;45.488;12.238;2024-03-23T07:36:12;23.95;;;19.70;;
38787;SDS011;24536;45.488;12.238;2024-03-23T07:38:40;23.33;;;19.30;;
38787;SDS011;24536;45.488;12.238;2024-03-23T07:41:13;24.67;;;20.75;;
38787;SDS011;24536;45.488;12.238;2024-03-23T07:43:42;21.08;;;18.85;;
38787;SDS011;24536;45.488;12.238;2024-03-23T07:46:08;23.52;;;19.15;;
38787;SDS011;24536;45.488;12.238;2024-03-23T07:48:34;23.60;;;19.95;;
38787;SDS011;24536;45.488;12.238;2024-03-23T07:53:27;22.48;;;19.80;;
38787;SDS011;24536;45.488;12.238;2024-03-23T07:56:01;22.88;;;19.20;;
38787;SDS011;24536;45.488;12.238;2024-03-23T07:58:29;21.83;;;19.30;;
38787;SDS011;24536;45.488;12.238;2024-03-23T08:00:55;24.95;;;20.70;;
38787;SDS011;24536;45.488;12.238;2024-03-23T08:03:21;21.92;;;19.63;;
38787;SDS011;24536;45.488;12.238;2024-03-23T08:05:47;21.85;;;19.55;;
38787;SDS011;24536;45.488;12.238;2024-03-23T08:08:13;21.42;;;19.10;;
38787;SDS011;24536;45.488;12.238;2024-03-23T08:10:51;21.65;;;18.67;;
38787;SDS011;24536;45.488;12.238;2024-03-23T08:13:18;24.15;;;19.85;;
38787;SDS011;24536;45.488;12.238;2024-03-23T08:15:44;21.98;;;19.33;;
38787;SDS011;24536;45.488;12.238;2024-03-23T08:18:11;20.58;;;18.38;;
38787;SDS011;24536;45.488;12.238;2024-03-23T08:20:37;19.50;;;17.33;;
38787;SDS011;24536;45.488;12.238;2024-03-23T08:23:04;22.80;;;18.35;;
38787;SDS011;24536;45.488;12.238;2024-03-23T08:25:31;19.30;;;16.25;;
38787;SDS011;24536;45.488;12.238;2024-03-23T08:27:57;19.17;;;16.85;;
38787;SDS011;24536;45.488;12.238;2024-03-23T08:30:23;20.15;;;17.17;;
38787;SDS011;24536;45.488;12.238;2024-03-23T08:32:48;20.17;;;17.35;;
38787;SDS011;24536;45.488;12.238;2024-03-23T08:35:14;20.30;;;18.08;;
38787;SDS011;24536;45.488;12.238;2024-03-23T08:37:40;19.30;;;17.23;;
38787;SDS011;24536;45.488;12.238;2024-03-23T08:40:05;20.35;;;17.63;;
38787;SDS011;24536;45.488;12.238;2024-03-23T08:42:33;20.75;;;17.38;;
38787;SDS011;24536;45.488;12.238;2024-03-23T08:44:59;22.55;;;17.60;;
38787;SDS011;24536;45.488;12.238;2024-03-23T08:47:25;22.70;;;19.08;;
38787;SDS011;24536;45.488;12.238;2024-03-23T08:49:50;19.08;;;16.88;;
38787;SDS011;24536;45.488;12.238;2024-03-23T08:52:16;19.60;;;15.52;;
38787;SDS011;24536;45.488;12.238;2024-03-23T08:54:42;17.45;;;15.55;;
38787;SDS011;24536;45.488;12.238;2024-03-23T08:57:07;16.70;;;14.35;;
38787;SDS011;24536;45.488;12.238;2024-03-23T08:59:33;17.23;;;13.82;;
38787;SDS011;24536;45.488;12.238;2024-03-23T09:01:59;17.42;;;15.13;;
38787;SDS011;24536;45.488;12.238;2024-03-23T09:04:25;15.77;;;13.60;;
38787;SDS011;24536;45.488;12.238;2024-03-23T09:06:51;14.07;;;12.20;;
38787;SDS011;24536;45.488;12.238;2024-03-23T09:09:16;14.15;;;12.45;;
38787;SDS011;24536;45.488;12.238;2024-03-23T09:11:42;17.20;;;12.25;;
38787;SDS011;24536;45.488;12.238;2024-03-23T09:14:08;15.63;;;12.45;;
38787;SDS011;24536;45.488;12.238;2024-03-23T09:16:34;13.60;;;12.10;;
38787;SDS011;24536;45.488;12.238;2024-03-23T09:19:00;12.75;;;11.45;;
38787;SDS011;24536;45.488;12.238;2024-03-23T09:21:25;12.90;;;11.57;;
38787;SDS011;24536;45.488;12.238;2024-03-23T09:23:51;13.95;;;12.18;;
38787;SDS011;24536;45.488;12.238;2024-03-23T09:26:17;13.40;;;12.00;;
38787;SDS011;24536;45.488;12.238;2024-03-23T09:28:42;16.33;;;13.82;;
38787;SDS011;24536;45.488;12.238;2024-03-23T09:31:08;14.45;;;10.70;;
38787;SDS011;24536;45.488;12.238;2024-03-23T09:33:36;12.13;;;10.93;;
38787;SDS011;24536;45.488;12.238;2024-03-23T09:36:04;12.77;;;10.98;;
38787;SDS011;24536;45.488;12.238;2024-03-23T09:38:30;11.00;;;9.88;;
38787;SDS011;24536;45.488;12.238;2024-03-23T09:40:56;11.90;;;10.60;;
38787;SDS011;24536;45.488;12.238;2024-03-23T09:43:23;11.38;;;9.68;;
38787;SDS011;24536;45.488;12.238;2024-03-23T09:45:49;11.90;;;9.95;;
38787;SDS011;24536;45.488;12.238;2024-03-23T09:48:15;11.40;;;8.23;;
38787;SDS011;24536;45.488;12.238;2024-03-23T09:50:44;12.13;;;9.77;;
38787;SDS011;24536;45.488;12.238;2024-03-23T09:53:11;13.32;;;10.10;;
38787;SDS011;24536;45.488;12.238;2024-03-23T09:55:43;11.65;;;9.70;;
38787;SDS011;24536;45.488;12.238;2024-03-23T09:58:13;12.13;;;10.68;;
38787;SDS011;24536;45.488;12.238;2024-03-23T10:00:40;12.75;;;10.90;;
38787;SDS011;24536;45.488;12.238;2024-03-23T10:03:05;10.35;;;9.32;;
38787;SDS011;24536;45.488;12.238;2024-03-23T10:05:32;10.65;;;9.52;;
38787;SDS011;24536;45.488;12.238;2024-03-23T10:10:38;12.95;;;10.50;;
38787;SDS011;24536;45.488;12.238;2024-03-23T10:13:04;13.95;;;10.52;;
38787;SDS011;24536;45.488;12.238;2024-03-23T10:15:29;11.15;;;10.05;;
38787;SDS011;24536;45.488;12.238;2024-03-23T10:17:58;14.35;;;12.25;;
38787;SDS011;24536;45.488;12.238;2024-03-23T10:20:39;12.68;;;10.90;;
38787;SDS011;24536;45.488;12.238;2024-03-23T10:23:04;11.07;;;9.98;;
38787;SDS011;24536;45.488;12.238;2024-03-23T10:25:41;13.02;;;11.00;;
38787;SDS011;24536;45.488;12.238;2024-03-23T10:28:06;13.73;;;11.10;;
38787;SDS011;24536;45.488;12.238;2024-03-23T10:30:32;12.27;;;11.02;;
38787;SDS011;24536;45.488;12.238;2024-03-23T10:33:09;10.50;;;9.40;;
38787;SDS011;24536;45.488;12.238;2024-03-23T10:35:36;10.73;;;9.57;;
38787;SDS011;24536;45.488;12.238;2024-03-23T10:38:06;10.52;;;9.07;;
38787;SDS011;24536;45.488;12.238;2024-03-23T10:40:35;10.85;;;9.75;;
38787;SDS011;24536;45.488;12.238;2024-03-23T10:43:04;12.17;;;8.80;;
38787;SDS011;24536;45.488;12.238;2024-03-23T10:45:33;14.15;;;11.68;;
38787;SDS011;24536;45.488;12.238;2024-03-23T10:47:59;20.98;;;16.42;;
38787;SDS011;24536;45.488;12.238;2024-03-23T10:50:24;19.00;;;15.25;;
38787;SDS011;24536;45.488;12.238;2024-03-23T10:52:51;17.65;;;15.85;;
38787;SDS011;24536;45.488;12.238;2024-03-23T10:55:18;17.45;;;14.98;;
38787;SDS011;24536;45.488;12.238;2024-03-23T10:57:53;16.35;;;14.60;;
38787;SDS011;24536;45.488;12.238;2024-03-23T11:00:20;18.02;;;15.30;;
38787;SDS011;24536;45.488;12.238;2024-03-23T11:02:47;17.23;;;15.43;;
38787;SDS011;24536;45.488;12.238;2024-03-23T11:07:52;14.77;;;12.45;;
38787;SDS011;24536;45.488;12.238;2024-03-23T11:10:30;15.63;;;14.00;;
38787;SDS011;24536;45.488;12.238;2024-03-23T11:12:58;18.48;;;16.08;;
38787;SDS011;24536;45.488;12.238;2024-03-23T11:15:44;14.20;;;12.70;;
38787;SDS011;24536;45.488;12.238;2024-03-23T11:18:09;18.55;;;16.55;;
38787;SDS011;24536;45.488;12.238;2024-03-23T11:20:37;23.35;;;18.70;;
38787;SDS011;24536;45.488;12.238;2024-03-23T11:23:03;19.88;;;15.60;;
38787;SDS011;24536;45.488;12.238;2024-03-23T11:25:29;18.75;;;16.45;;
38787;SDS011;24536;45.488;12.238;2024-03-23T11:27:56;18.70;;;16.65;;
38787;SDS011;24536;45.488;12.238;2024-03-23T11:32:54;19.85;;;17.42;;
38787;SDS011;24536;45.488;12.238;2024-03-23T11:38:04;20.98;;;17.60;;
38787;SDS011;24536;45.488;12.238;2024-03-23T11:40:33;20.70;;;16.88;;
38787;SDS011;24536;45.488;12.238;2024-03-23T11:43:00;18.00;;;16.10;;
38787;SDS011;24536;45.488;12.238;2024-03-23T11:45:28;16.38;;;14.35;;
38787;SDS011;24536;45.488;12.238;2024-03-23T11:50:29;15.23;;;13.73;;
38787;SDS011;24536;45.488;12.238;2024-03-23T11:53:06;17.20;;;15.32;;
38787;SDS011;24536;45.488;12.238;2024-03-23T11:55:53;16.17;;;14.52;;
38787;SDS011;24536;45.488;12.238;2024-03-23T11:58:21;15.55;;;13.65;;
38787;SDS011;24536;45.488;12.238;2024-03-23T12:03:27;19.08;;;14.80;;
38787;SDS011;24536;45.488;12.238;2024-03-23T12:11:11;15.90;;;14.20;;
38787;SDS011;24536;45.488;12.238;2024-03-23T12:13:40;14.52;;;12.85;;
38787;SDS011;24536;45.488;12.238;2024-03-23T12:18:38;15.65;;;12.35;;
38787;SDS011;24536;45.488;12.238;2024-03-23T12:21:07;15.05;;;13.45;;
38787;SDS011;24536;45.488;12.238;2024-03-23T12:23:33;13.25;;;11.93;;
38787;SDS011;24536;45.488;12.238;2024-03-23T12:26:00;14.52;;;12.02;;
38787;SDS011;24536;45.488;12.238;2024-03-23T12:28:26;13.52;;;12.13;;
38787;SDS011;24536;45.488;12.238;2024-03-23T12:30:52;13.77;;;12.38;;
38787;SDS011;24536;45.488;12.238;2024-03-23T12:33:19;15.98;;;14.38;;
38787;SDS011;24536;45.488;12.238;2024-03-23T12:35:45;15.80;;;13.48;;
38787;SDS011;24536;45.488;12.238;2024-03-23T12:38:11;14.80;;;12.63;;
38787;SDS011;24536;45.488;12.238;2024-03-23T12:40:36;14.63;;;12.98;;
38787;SDS011;24536;45.488;12.238;2024-03-23T12:43:02;13.23;;;11.82;;
38787;SDS011;24536;45.488;12.238;2024-03-23T12:45:29;18.85;;;14.82;;
38787;SDS011;24536;45.488;12.238;2024-03-23T12:47:55;16.02;;;12.75;;
38787;SDS011;24536;45.488;12.238;2024-03-23T12:50:20;15.05;;;13.55;;
38787;SDS011;24536;45.488;12.238;2024-03-23T12:52:46;15.48;;;13.30;;
38787;SDS011;24536;45.488;12.238;2024-03-23T12:55:12;14.00;;;12.65;;
38787;SDS011;24536;45.488;12.238;2024-03-23T12:57:38;13.95;;;12.60;;
38787;SDS011;24536;45.488;12.238;2024-03-23T13:00:06;14.45;;;13.02;;
38787;SDS011;24536;45.488;12.238;2024-03-23T13:02:38;14.20;;;12.73;;
38787;SDS011;24536;45.488;12.238;2024-03-23T13:05:04;18.20;;;13.20;;
38787;SDS011;24536;45.488;12.238;2024-03-23T13:07:35;14.77;;;13.38;;
38787;SDS011;24536;45.488;12.238;2024-03-23T13:10:05;15.05;;;13.48;;
38787;SDS011;24536;45.488;12.238;2024-03-23T13:12:35;16.75;;;13.88;;
38787;SDS011;24536;45.488;12.238;2024-03-23T13:15:01;13.80;;;12.43;;
38787;SDS011;24536;45.488;12.238;2024-03-23T13:17:27;14.80;;;13.30;;
38787;SDS011;24536;45.488;12.238;2024-03-23T13:19:56;15.38;;;13.77;;
38787;SDS011;24536;45.488;12.238;2024-03-23T13:22:21;16.70;;;14.18;;
38787;SDS011;24536;45.488;12.238;2024-03-23T13:24:47;15.07;;;13.00;;
38787;SDS011;24536;45.488;12.238;2024-03-23T13:27:13;17.15;;;15.40;;
38787;SDS011;24536;45.488;12.238;2024-03-23T13:29:39;15.60;;;13.90;;
38787;SDS011;24536;45.488;12.238;2024-03-23T13:32:05;14.85;;;13.20;;
38787;SDS011;24536;45.488;12.238;2024-03-23T13:34:31;17.98;;;15.95;;
38787;SDS011;24536;45.488;12.238;2024-03-23T13:36:58;18.83;;;16.92;;
38787;SDS011;24536;45.488;12.238;2024-03-23T13:39:27;19.33;;;17.08;;
38787;SDS011;24536;45.488;12.238;2024-03-23T13:41:53;19.10;;;17.10;;
38787;SDS011;24536;45.488;12.238;2024-03-23T13:44:22;18.87;;;16.87;;
38787;SDS011;24536;45.488;12.238;2024-03-23T13:46:48;23.00;;;18.10;;
38787;SDS011;24536;45.488;12.238;2024-03-23T13:49:26;20.98;;;18.75;;
38787;SDS011;24536;45.488;12.238;2024-03-23T13:51:58;20.27;;;17.45;;
38787;SDS011;24536;45.488;12.238;2024-03-23T13:54:36;20.83;;;17.73;;
38787;SDS011;24536;45.488;12.238;2024-03-23T13:57:02;18.63;;;16.38;;
38787;SDS011;24536;45.488;12.238;2024-03-23T13:59:28;19.25;;;16.23;;
38787;SDS011;24536;45.488;12.238;2024-03-23T14:01:55;18.67;;;16.70;;
38787;SDS011;24536;45.488;12.238;2024-03-23T14:04:21;18.05;;;16.10;;
38787;SDS011;24536;45.488;12.238;2024-03-23T14:06:47;18.75;;;15.32;;
38787;SDS011;24536;45.488;12.238;2024-03-23T14:09:13;17.20;;;15.40;;
38787;SDS011;24536;45.488;12.238;2024-03-23T14:11:39;20.50;;;17.13;;
38787;SDS011;24536;45.488;12.238;2024-03-23T14:14:10;19.42;;;17.10;;
38787;SDS011;24536;45.488;12.238;2024-03-23T14:16:36;19.55;;;17.45;;
38787;SDS011;24536;45.488;12.238;2024-03-23T14:19:02;20.73;;;16.67;;
38787;SDS011;24536;45.488;12.238;2024-03-23T14:21:29;18.52;;;16.17;;
38787;SDS011;24536;45.488;12.238;2024-03-23T14:23:55;18.95;;;16.38;;
38787;SDS011;24536;45.488;12.238;2024-03-23T14:26:21;17.35;;;15.52;;
38787;SDS011;24536;45.488;12.238;2024-03-23T14:28:49;23.27;;;16.48;;
38787;SDS011;24536;45.488;12.238;2024-03-23T14:31:15;17.55;;;15.35;;
38787;SDS011;24536;45.488;12.238;2024-03-23T14:33:41;16.75;;;15.00;;
38787;SDS011;24536;45.488;12.238;2024-03-23T14:36:11;20.55;;;16.20;;
38787;SDS011;24536;45.488;12.238;2024-03-23T14:38:41;16.25;;;14.50;;
38787;SDS011;24536;45.488;12.238;2024-03-23T14:41:07;18.58;;;16.58;;
38787;SDS011;24536;45.488;12.238;2024-03-23T14:43:39;19.08;;;16.63;;
38787;SDS011;24536;45.488;12.238;2024-03-23T14:46:22;18.88;;;15.15;;
38787;SDS011;24536;45.488;12.238;2024-03-23T14:48:48;19.60;;;16.95;;
38787;SDS011;24536;45.488;12.238;2024-03-23T14:51:14;19.27;;;15.18;;
38787;SDS011;24536;45.488;12.238;2024-03-23T14:53:40;17.25;;;15.45;;
38787;SDS011;24536;45.488;12.238;2024-03-23T14:56:10;18.52;;;16.52;;
38787;SDS011;24536;45.488;12.238;2024-03-23T14:58:38;18.10;;;15.10;;
38787;SDS011;24536;45.488;12.238;2024-03-23T15:01:05;15.57;;;13.98;;
38787;SDS011;24536;45.488;12.238;2024-03-23T15:03:38;19.27;;;15.52;;
38787;SDS011;24536;45.488;12.238;2024-03-23T15:06:04;15.17;;;13.13;;
38787;SDS011;24536;45.488;12.238;2024-03-23T15:08:31;14.30;;;12.80;;
38787;SDS011;24536;45.488;12.238;2024-03-23T15:10:59;13.75;;;12.32;;
38787;SDS011;24536;45.488;12.238;2024-03-23T15:13:30;16.25;;;12.60;;
38787;SDS011;24536;45.488;12.238;2024-03-23T15:15:57;14.70;;;11.98;;
38787;SDS011;24536;45.488;12.238;2024-03-23T15:18:22;12.38;;;10.70;;
38787;SDS011;24536;45.488;12.238;2024-03-23T15:20:51;11.95;;;10.02;;
38787;SDS011;24536;45.488;12.238;2024-03-23T15:23:18;11.93;;;10.23;;
38787;SDS011;24536;45.488;12.238;2024-03-23T15:25:53;9.95;;;8.68;;
38787;SDS011;24536;45.488;12.238;2024-03-23T15:28:26;13.35;;;9.40;;
38787;SDS011;24536;45.488;12.238;2024-03-23T15:31:03;12.32;;;9.38;;
38787;SDS011;24536;45.488;12.238;2024-03-23T15:33:35;11.05;;;9.23;;
38787;SDS011;24536;45.488;12.238;2024-03-23T15:36:04;9.65;;;8.23;;